Data for 12/31/2005

Time Sea-Level Adjusted Pressure Absolute Pressure Temperature Relative Humidity Dew Point   
(mb) (inHg) (mb) (inHg) (C) (F) (%) (C) (F)
00:05 998 29.47 827 24.42 2.1 35.8 74 -2 28.4
00:10 998 29.47 827 24.42 2 35.5 75 -2 28.4
00:15 998 29.47 827 24.42 2 35.6 74 -2.1 28.2
00:20 998 29.47 827 24.42 2.1 35.9 74 -2 28.5
00:25 998 29.47 827 24.42 2.2 36 73 -2.1 28.2
00:30 998 29.47 827 24.42 2.5 36.5 71 -2.2 28.1
00:35 998 29.47 827 24.42 2.5 36.6 72 -1.9 28.5
00:40 998 29.47 827 24.42 2.5 36.5 72 -2 28.4
00:45 998 29.47 827 24.42 2.6 36.7 72 -1.9 28.6
00:50 998 29.47 827 24.42 2.6 36.6 73 -1.8 28.8
00:55 997 29.44 827 24.42 2.7 36.8 72 -1.8 28.7
01:00 997 29.44 826 24.39 2.7 36.9 73 -1.7 29
01:05 997 29.44 827 24.42 2.8 37 74 -1.5 29.4
01:10 997 29.44 826 24.39 2.7 36.9 74 -1.5 29.3
01:15 997 29.44 827 24.42 2.8 37 74 -1.5 29.3
01:20 998 29.47 827 24.42 3 37.3 71 -1.7 28.9
01:25 998 29.47 827 24.42 3.2 37.7 72 -1.5 29.3
01:30 998 29.47 827 24.42 3.3 38 69 -1.8 28.8
01:35 998 29.47 827 24.42 3.7 38.6 68 -1.6 29.1
01:40 998 29.47 827 24.42 3.6 38.6 71 -1.1 29.9
01:45 998 29.47 827 24.42 3.4 38.1 71 -1.5 29.3
01:50 998 29.47 828 24.45 3.5 38.2 70 -1.5 29.3
01:55 998 29.47 828 24.45 3.5 38.3 69 -1.6 29.2
02:00 999 29.5 828 24.45 3.5 38.4 71 -1.3 29.7
02:05 999 29.5 828 24.45 3.3 37.9 72 -1.2 29.8
02:10 999 29.5 828 24.45 3.2 37.8 72 -1.4 29.4
02:15 999 29.5 828 24.45 3.4 38.2 70 -1.5 29.3
02:20 999 29.5 828 24.45 3.4 38.1 72 -1.2 29.9
02:25 999 29.5 828 24.45 3.2 37.8 70 -1.6 29.1
02:30 999 29.5 828 24.45 3.4 38.1 71 -1.4 29.5
02:35 999 29.5 828 24.45 3.4 38.1 75 -0.6 30.9
02:40 999 29.5 828 24.45 3 37.5 78 -0.5 31.1
02:45 999 29.5 828 24.45 2.8 37 78 -0.7 30.8
02:50 998 29.47 828 24.45 2.9 37.1 76 -0.9 30.4
02:55 999 29.5 828 24.45 2.9 37.2 77 -0.8 30.6
03:00 999 29.5 828 24.45 2.8 37 77 -0.8 30.6
03:05 998 29.47 828 24.45 2.7 36.8 78 -0.8 30.6
03:10 998 29.47 828 24.45 3 37.4 75 -1 30.2
03:15 998 29.47 828 24.45 3.3 37.9 75 -0.8 30.6
03:20 998 29.47 828 24.45 3 37.5 77 -0.5 31.1
03:25 998 29.47 827 24.42 2.9 37.3 76 -0.8 30.5
03:30 998 29.47 827 24.42 3.1 37.5 75 -0.9 30.4
03:35 998 29.47 827 24.42 3.5 38.2 72 -1.1 30
03:40 998 29.47 828 24.45 3.6 38.4 76 -0.2 31.6
03:45 998 29.47 828 24.45 3.1 37.6 77 -0.5 31
03:50 999 29.5 828 24.45 3.2 37.8 74 -1 30.1
03:55 998 29.47 828 24.45 3.8 38.8 69 -1.5 29.4
04:00 998 29.47 828 24.45 4.6 40.4 64 -1.5 29.3
04:05 998 29.47 828 24.45 5 41 62 -1.6 29.2
04:10 998 29.47 827 24.42 4.9 40.8 64 -1.3 29.6
04:15 998 29.47 828 24.45 4.7 40.4 66 -1.1 30.1
04:20 998 29.47 828 24.45 4.2 39.5 69 -1 30.3
04:25 998 29.47 828 24.45 3.9 39 70 -1.1 30
04:30 999 29.5 828 24.45 3.7 38.7 69 -1.5 29.4
04:35 999 29.5 828 24.45 4 39.1 67 -1.7 28.9
04:40 999 29.5 828 24.45 4.3 39.8 67 -1.3 29.7
04:45 999 29.5 828 24.45 4.1 39.5 66 -1.6 29
04:50 999 29.5 828 24.45 4.5 40 65 -1.6 29.1
04:55 998 29.47 828 24.45 4.1 39.4 67 -1.5 29.3
05:00 998 29.47 828 24.45 4.2 39.6 66 -1.5 29.3
05:05 998 29.47 827 24.42 3.6 38.5 70 -1.3 29.7
05:10 998 29.47 827 24.42 3.8 38.8 67 -1.8 28.7
05:15 998 29.47 828 24.45 4.4 40 65 -1.5 29.3
05:20 998 29.47 828 24.45 4.5 40.1 64 -1.8 28.8
05:25 998 29.47 828 24.45 5.3 41.5 62 -1.5 29.4
05:30 999 29.5 828 24.45 4.6 40.3 65 -1.3 29.7
05:35 999 29.5 828 24.45 4.1 39.4 69 -1.1 29.9
05:40 999 29.5 828 24.45 3.8 38.8 67 -1.7 28.9
05:45 999 29.5 828 24.45 4.3 39.8 67 -1.3 29.6
05:50 999 29.5 828 24.45 4.4 40 65 -1.5 29.3
05:55 999 29.5 828 24.45 4.3 39.8 68 -1 30.1
06:00 999 29.5 828 24.45 4.5 40 63 -1.9 28.6
06:05 999 29.5 828 24.45 4 39.2 72 -0.6 30.9
06:10 999 29.5 828 24.45 3.4 38.1 70 -1.5 29.3
06:15 999 29.5 828 24.45 3.7 38.7 69 -1.4 29.5
06:20 999 29.5 828 24.45 3.9 39.1 68 -1.4 29.5
06:25 999 29.5 828 24.45 3.6 38.5 72 -0.9 30.3
06:30 999 29.5 828 24.45 3.3 38 72 -1.2 29.9
06:35 999 29.5 828 24.45 3.5 38.4 71 -1.2 29.9
06:40 999 29.5 828 24.45 3.9 39 72 -0.8 30.5
06:45 999 29.5 828 24.45 3.8 38.8 71 -1.1 30.1
06:50 998 29.47 827 24.42 3.4 38.1 71 -1.3 29.7
06:55 998 29.47 828 24.45 3.3 37.9 72 -1.3 29.7
07:00 999 29.5 828 24.45 2.8 37 74 -1.3 29.6
07:05 999 29.5 828 24.45 2.7 36.9 76 -1.1 30
07:10 999 29.5 828 24.45 2.5 36.5 78 -1 30.2
07:15 999 29.5 828 24.45 2.3 36.1 77 -1.3 29.7
07:20 999 29.5 828 24.45 2.5 36.6 75 -1.5 29.3
07:25 999 29.5 828 24.45 3.1 37.5 73 -1.4 29.5
07:30 999 29.5 828 24.45 3.1 37.6 73 -1.2 29.9
07:35 999 29.5 828 24.45 3.5 38.2 71 -1.4 29.5
07:40 999 29.5 828 24.45 3.5 38.3 71 -1.3 29.6
07:45 999 29.5 828 24.45 3.4 38.1 73 -1 30.3
07:50 999 29.5 828 24.45 3.6 38.4 72 -1.1 30.1
07:55 999 29.5 828 24.45 3.9 39 70 -1.1 30.1
08:00 999 29.5 828 24.45 4 39.3 70 -1 30.2
08:05 999 29.5 828 24.45 3.9 39.1 70 -1 30.3
08:10 999 29.5 828 24.45 3.8 38.9 71 -0.9 30.4
08:15 999 29.5 828 24.45 3.7 38.6 72 -0.9 30.3
08:20 999 29.5 828 24.45 3.3 37.9 75 -0.8 30.6
08:25 999 29.5 828 24.45 3.2 37.7 74 -1 30.3
08:30 999 29.5 828 24.45 2.6 36.6 76 -1.2 29.8
08:35 999 29.5 828 24.45 2.9 37.2 75 -1.2 29.9
08:40 999 29.5 828 24.45 3.3 37.9 74 -0.8 30.5
08:45 999 29.5 828 24.45 3 37.5 76 -0.8 30.5
08:50 999 29.5 828 24.45 3 37.4 76 -0.8 30.5
08:55 999 29.5 828 24.45 3.2 37.8 75 -0.7 30.8
09:00 999 29.5 828 24.45 3.4 38.2 73 -0.9 30.3
09:05 999 29.5 828 24.45 3.5 38.3 75 -0.5 31.1
09:10 999 29.5 828 24.45 3.3 37.9 75 -0.7 30.8
09:15 999 29.5 828 24.45 3.5 38.2 74 -0.7 30.8
09:20 999 29.5 828 24.45 3.6 38.5 73 -0.8 30.5
09:25 999 29.5 828 24.45 3.5 38.3 76 -0.4 31.3
09:30 999 29.5 828 24.45 2.8 37.1 78 -0.6 30.9
09:35 999 29.5 828 24.45 2.6 36.8 77 -1 30.3
09:40 999 29.5 828 24.45 2.5 36.5 79 -0.7 30.7
09:45 999 29.5 828 24.45 2.4 36.4 79 -0.8 30.5
09:50 999 29.5 828 24.45 2.4 36.3 79 -0.9 30.4
09:55 999 29.5 828 24.45 2.5 36.5 79 -0.8 30.6
10:00 999 29.5 828 24.45 2.9 37.2 77 -0.7 30.7
10:05 999 29.5 828 24.45 3.4 38.1 73 -1.1 30.1
10:10 999 29.5 828 24.45 3.9 39.1 71 -0.8 30.5
10:15 999 29.5 828 24.45 4 39.2 72 -0.5 31.1
10:20 999 29.5 828 24.45 3.9 38.9 73 -0.6 30.9
10:25 999 29.5 828 24.45 3.9 39.1 72 -0.6 31
10:30 999 29.5 829 24.48 4.3 39.7 71 -0.6 30.9
10:35 999 29.5 829 24.48 4.7 40.4 69 -0.6 30.9
10:40 1000 29.53 829 24.48 4.9 40.8 69 -0.3 31.5
10:45 1000 29.53 829 24.48 5.2 41.4 66 -0.5 31
10:50 1000 29.53 829 24.48 5.8 42.5 65 -0.3 31.5
10:55 1000 29.53 829 24.48 5.9 42.6 64 -0.3 31.5
11:00 999 29.5 829 24.48 5.8 42.5 66 0.1 32.2
11:05 999 29.5 828 24.45 5.5 41.9 69 0.3 32.6
11:10 999 29.5 828 24.45 5.5 41.9 68 0 32
11:15 999 29.5 828 24.45 6 42.7 65 -0.1 31.8
11:20 999 29.5 828 24.45 6.4 43.5 64 0.2 32.3
11:25 999 29.5 828 24.45 6.1 43 66 0.3 32.5
11:30 999 29.5 829 24.48 6 42.8 65 -0.1 31.8
11:35 999 29.5 829 24.48 6 42.9 65 -0.1 31.8
11:40 999 29.5 829 24.48 5.8 42.5 66 -0 31.9
11:45 999 29.5 829 24.48 5.5 41.8 68 -0 32
11:50 999 29.5 828 24.45 5.5 41.8 67 -0.3 31.5
11:55 999 29.5 828 24.45 5.4 41.7 67 -0.3 31.5
12:00 999 29.5 828 24.45 5.8 42.4 65 -0.2 31.6
12:05 999 29.5 828 24.45 6.3 43.3 62 -0.4 31.2
12:10 999 29.5 828 24.45 6.8 44.2 60 -0.4 31.3
12:15 998 29.47 828 24.45 7.1 44.8 60 -0 32
12:20 998 29.47 827 24.42 6.6 43.9 63 0.1 32.2
12:25 998 29.47 827 24.42 6 42.8 64 -0.2 31.6
12:30 998 29.47 827 24.42 6 42.8 65 0 32.1
12:35 998 29.47 827 24.42 5.8 42.5 66 -0.1 31.9
12:40 998 29.47 827 24.42 5.8 42.4 64 -0.4 31.3
12:45 998 29.47 827 24.42 5.9 42.6 63 -0.7 30.8
12:50 998 29.47 827 24.42 6.1 43 62 -0.6 30.8
12:55 998 29.47 827 24.42 6.2 43.2 59 -1.1 30.1
13:00 998 29.47 827 24.42 6.4 43.6 61 -0.6 30.8
13:05 998 29.47 827 24.42 6.6 43.8 62 -0.3 31.5
13:10 998 29.47 827 24.42 6.4 43.6 63 0 32
13:15 998 29.47 827 24.42 6.3 43.4 62 -0.4 31.3
13:20 998 29.47 827 24.42 6.3 43.4 62 -0.4 31.4
13:25 998 29.47 827 24.42 6.3 43.4 60 -0.8 30.6
13:30 998 29.47 827 24.42 6.1 43 64 -0.2 31.7
13:35 998 29.47 827 24.42 6.1 42.9 60 -1.1 30
13:40 997 29.44 827 24.42 6.5 43.6 61 -0.5 31.1
13:45 997 29.44 826 24.39 6.6 43.8 61 -0.3 31.4
13:50 997 29.44 826 24.39 6.6 43.8 60 -0.5 31.1
13:55 997 29.44 826 24.39 6.4 43.5 62 -0.4 31.2
14:00 997 29.44 826 24.39 6.4 43.5 62 -0.3 31.5
14:05 997 29.44 826 24.39 6.4 43.6 63 -0.1 31.8
14:10 997 29.44 826 24.39 6.3 43.4 64 0 32.1
14:15 997 29.44 826 24.39 6.3 43.3 64 -0 32
14:20 997 29.44 826 24.39 6.5 43.6 64 0.2 32.4
14:25 997 29.44 826 24.39 6.9 44.4 63 0.3 32.6
14:30 997 29.44 826 24.39 7 44.6 62 0.2 32.3
14:35 997 29.44 826 24.39 6.7 44.1 66 0.8 33.5
14:40 997 29.44 826 24.39 6.4 43.4 65 0.3 32.5
14:45 997 29.44 826 24.39 6.4 43.6 66 0.6 33
14:50 997 29.44 826 24.39 6.6 43.9 62 -0.2 31.6
14:55 997 29.44 826 24.39 6.7 44 59 -0.8 30.6
15:00 997 29.44 826 24.39 7 44.5 58 -0.7 30.8
15:05 997 29.44 826 24.39 7.2 44.9 58 -0.6 30.9
15:10 997 29.44 826 24.39 7.2 44.9 59 -0.4 31.4
15:15 997 29.44 826 24.39 7.2 45 60 0.1 32.2
15:20 997 29.44 826 24.39 7.1 44.8 60 -0 32
15:25 997 29.44 826 24.39 7 44.5 61 -0 32
15:30 997 29.44 826 24.39 6.7 44 62 -0.1 31.7
15:35 997 29.44 826 24.39 6.5 43.7 64 0.1 32.2
15:40 997 29.44 826 24.39 6.7 44 61 -0.3 31.5
15:45 997 29.44 826 24.39 6.4 43.6 63 -0.2 31.7
15:50 997 29.44 826 24.39 6.5 43.6 63 -0.1 31.9
15:55 997 29.44 826 24.39 6.2 43.2 63 -0.2 31.7
16:00 997 29.44 826 24.39 5.9 42.6 67 0.2 32.4
16:05 997 29.44 826 24.39 5.6 42 69 0.3 32.5
16:10 997 29.44 826 24.39 5.5 41.9 69 0.3 32.6
16:15 997 29.44 826 24.39 5.5 41.8 68 0.1 32.2
16:20 997 29.44 826 24.39 5.7 42.3 69 0.5 32.8
16:25 997 29.44 826 24.39 6 42.7 67 0.3 32.6
16:30 997 29.44 826 24.39 5.7 42.3 70 0.6 33.1
16:35 996 29.41 826 24.39 5.8 42.4 68 0.3 32.6
16:40 996 29.41 826 24.39 5.7 42.2 69 0.5 32.9
16:45 996 29.41 826 24.39 5.6 42.2 69 0.4 32.7
16:50 997 29.44 826 24.39 5.5 41.9 70 0.5 32.9
16:55 997 29.44 826 24.39 5.5 41.9 68 0.1 32.2
17:00 997 29.44 826 24.39 5.6 42 67 0 32.1
17:05 996 29.41 826 24.39 5.7 42.3 66 -0 32
17:10 996 29.41 826 24.39 5.8 42.4 66 -0 31.9
17:15 997 29.44 826 24.39 5.8 42.4 64 -0.4 31.3
17:20 997 29.44 826 24.39 5.8 42.5 64 -0.5 31.1
17:25 996 29.41 826 24.39 6 42.7 63 -0.5 31.1
17:30 996 29.41 826 24.39 6 42.7 63 -0.4 31.2
17:35 996 29.41 826 24.39 5.9 42.7 64 -0.3 31.4
17:40 996 29.41 826 24.39 5.7 42.2 65 -0.5 31.2
17:45 996 29.41 826 24.39 5.7 42.3 64 -0.5 31
17:50 996 29.41 826 24.39 5.7 42.3 64 -0.6 31
17:55 996 29.41 826 24.39 5.7 42.3 64 -0.5 31.2
18:00 996 29.41 825 24.36 5.7 42.3 64 -0.5 31.1
18:05 996 29.41 825 24.36 5.7 42.2 64 -0.6 31
18:10 996 29.41 825 24.36 5.8 42.4 64 -0.6 31
18:15 996 29.41 825 24.36 5.7 42.2 64 -0.5 31
18:20 996 29.41 825 24.36 5.7 42.3 63 -0.8 30.6
18:25 996 29.41 825 24.36 5.8 42.4 64 -0.6 30.9
18:30 996 29.41 825 24.36 5.6 42.1 64 -0.7 30.8
18:35 996 29.41 825 24.36 5.5 42 65 -0.6 30.9
18:40 996 29.41 825 24.36 5.5 41.9 64 -0.7 30.8
18:45 996 29.41 825 24.36 5.5 41.9 65 -0.6 31
18:50 996 29.41 825 24.36 5.5 41.9 64 -0.6 30.8
18:55 996 29.41 825 24.36 5.7 42.2 63 -0.8 30.6
19:00 996 29.41 825 24.36 5.6 42.2 63 -0.8 30.5
19:05 996 29.41 825 24.36 5.7 42.3 63 -0.7 30.7
19:10 996 29.41 825 24.36 5.7 42.3 63 -0.8 30.5
19:15 996 29.41 825 24.36 5.7 42.3 63 -0.9 30.4
19:20 996 29.41 825 24.36 5.8 42.5 61 -1 30.1
19:25 996 29.41 825 24.36 6 42.8 62 -0.8 30.5
19:30 996 29.41 825 24.36 5.9 42.6 62 -0.8 30.6
19:35 996 29.41 825 24.36 5.9 42.6 61 -0.9 30.3
19:40 996 29.41 825 24.36 6 42.7 61 -0.9 30.3
19:45 996 29.41 825 24.36 6 42.7 62 -0.8 30.6
19:50 996 29.41 825 24.36 5.9 42.6 62 -0.8 30.5
19:55 996 29.41 825 24.36 5.8 42.4 63 -0.7 30.7
20:00 996 29.41 825 24.36 5.7 42.3 64 -0.6 31
20:05 996 29.41 825 24.36 5.7 42.2 63 -0.7 30.7
20:10 996 29.41 825 24.36 5.8 42.4 63 -0.7 30.7
20:15 996 29.41 825 24.36 5.7 42.3 63 -0.7 30.8
20:20 996 29.41 825 24.36 5.6 42.1 64 -0.6 31
20:25 996 29.41 825 24.36 5.4 41.6 66 -0.5 31.1
20:30 996 29.41 825 24.36 5.2 41.4 66 -0.6 31
20:35 996 29.41 825 24.36 5.1 41.2 66 -0.6 30.9
20:40 996 29.41 825 24.36 5.1 41.2 67 -0.5 31.1
20:45 996 29.41 825 24.36 4.9 40.9 68 -0.5 31.1
20:50 996 29.41 825 24.36 4.8 40.7 68 -0.5 31.1
20:55 996 29.41 825 24.36 4.7 40.4 69 -0.5 31.2
21:00 996 29.41 825 24.36 4.7 40.4 70 -0.4 31.3
21:05 996 29.41 825 24.36 4.6 40.2 70 -0.5 31.2
21:10 996 29.41 826 24.39 4.6 40.3 70 -0.4 31.3
21:15 996 29.41 826 24.39 4.6 40.2 70 -0.4 31.2
21:20 996 29.41 825 24.36 4.5 40.1 71 -0.3 31.4
21:25 996 29.41 826 24.39 4.3 39.8 71 -0.4 31.3
21:30 996 29.41 826 24.39 4.3 39.8 70 -0.6 30.9
21:35 996 29.41 826 24.39 4.7 40.4 69 -0.6 30.9
21:40 996 29.41 826 24.39 4.9 40.8 69 -0.4 31.3
21:45 996 29.41 826 24.39 4.9 40.7 69 -0.3 31.5
21:50 996 29.41 826 24.39 4.7 40.4 69 -0.4 31.2
21:55 996 29.41 826 24.39 4.8 40.6 68 -0.6 30.9
22:00 997 29.44 826 24.39 4.7 40.5 69 -0.4 31.2
22:05 997 29.44 826 24.39 4.4 39.9 72 -0.2 31.6
22:10 997 29.44 826 24.39 4.3 39.7 71 -0.6 31
22:15 997 29.44 826 24.39 4.6 40.3 68 -0.7 30.8
22:20 997 29.44 826 24.39 4.9 40.8 68 -0.6 30.9
22:25 997 29.44 826 24.39 4.4 40 73 0 32.1
22:30 997 29.44 826 24.39 4.1 39.4 72 -0.5 31
22:35 997 29.44 826 24.39 4.3 39.8 73 -0 32
22:40 997 29.44 826 24.39 3.5 38.2 76 -0.3 31.4
22:45 997 29.44 826 24.39 3.7 38.7 75 -0.3 31.5
22:50 997 29.44 826 24.39 3.8 38.8 75 -0.3 31.5
22:55 997 29.44 826 24.39 3.3 38 77 -0.3 31.4
23:00 997 29.44 826 24.39 3.4 38.1 75 -0.5 31
23:05 997 29.44 826 24.39 4 39.1 72 -0.7 30.8
23:10 997 29.44 826 24.39 4.5 40 71 -0.4 31.3
23:15 997 29.44 826 24.39 4.9 40.8 66 -0.9 30.4
23:20 997 29.44 826 24.39 5.5 41.9 66 -0.3 31.5
23:25 997 29.44 826 24.39 5.2 41.3 69 0.1 32.1
23:30 997 29.44 826 24.39 4.4 39.8 72 -0.2 31.7
23:35 997 29.44 826 24.39 4.3 39.7 71 -0.6 31
23:40 997 29.44 826 24.39 4.5 40.1 70 -0.5 31.1
23:45 997 29.44 826 24.39 4.8 40.7 69 -0.4 31.3
23:50 997 29.44 826 24.39 4.5 40.2 72 -0 31.9
23:55 997 29.44 826 24.39 4.2 39.6 71 -0.7 30.8
24:00 997 29.44 826 24.39 4.6 40.4 70 -0.4 31.3